Time;durP1;ratioP1;P1;durP2;ratioP2;P2;SDS_P1;SDS_P2;PMS_P1;PMS_P2;Temp;Humidity;BMP_temperature;BMP_pressure;BME280_temperature;BME280_humidity;BME280_pressure;Samples;Min_cycle;Max_cycle;Signal;HPM_P1;HPM_P2
2023/05/14 00:00:14;;;;;;;9.05;5.93;;;12.60;99.90;;;;;;5081335;28;20082;-70
2023/05/14 00:02:40;;;;;;;10.27;5.78;;;12.50;99.90;;;;;;5083036;28;20028;-73
2023/05/14 00:05:07;;;;;;;8.40;5.93;;;12.50;99.90;;;;;;5082124;28;20025;-73
2023/05/14 00:07:33;;;;;;;11.70;6.78;;;12.50;99.90;;;;;;5081920;28;20128;-71
2023/05/14 00:10:00;;;;;;;10.63;5.72;;;12.60;99.90;;;;;;5063485;28;20060;-71
2023/05/14 00:12:26;;;;;;;11.52;6.22;;;12.50;99.90;;;;;;5088861;22;20061;-73
2023/05/14 00:14:52;;;;;;;10.88;5.82;;;12.50;99.90;;;;;;5059702;28;20032;-73
2023/05/14 00:17:17;;;;;;;7.93;6.15;;;12.50;99.90;;;;;;5059890;28;20025;-73
2023/05/14 00:19:43;;;;;;;9.07;6.15;;;12.40;99.90;;;;;;5059690;28;20021;-72
2023/05/14 00:22:08;;;;;;;9.90;6.28;;;12.40;99.90;;;;;;5060028;28;20025;-73
2023/05/14 00:24:35;;;;;;;11.05;6.03;;;12.30;99.90;;;;;;5059673;28;20029;-73
2023/05/14 00:27:00;;;;;;;12.07;6.35;;;12.30;99.90;;;;;;5060349;28;20055;-73
2023/05/14 00:29:26;;;;;;;11.20;6.38;;;12.30;99.90;;;;;;5059629;28;20025;-72
2023/05/14 00:31:51;;;;;;;9.85;6.30;;;12.30;99.90;;;;;;5059795;28;20047;-73
2023/05/14 00:34:17;;;;;;;20.20;7.28;;;12.40;99.90;;;;;;5059446;28;20071;-72
2023/05/14 00:36:42;;;;;;;8.15;6.30;;;12.50;99.90;;;;;;5059348;28;20025;-73
2023/05/14 00:39:08;;;;;;;14.35;6.55;;;12.50;99.90;;;;;;5059294;28;20075;-73
2023/05/14 00:41:34;;;;;;;10.93;6.78;;;12.50;99.90;;;;;;5059598;28;20052;-73
2023/05/14 00:43:59;;;;;;;9.63;5.63;;;12.30;99.90;;;;;;5060660;28;20036;-73
2023/05/14 00:46:25;;;;;;;8.85;6.43;;;12.30;99.90;;;;;;5059604;28;20032;-78
2023/05/14 00:48:51;;;;;;;10.32;6.57;;;12.30;99.90;;;;;;5060378;28;20108;-78
2023/05/14 00:51:17;;;;;;;11.02;6.50;;;12.20;99.90;;;;;;5060270;28;20091;-78
2023/05/14 00:53:44;;;;;;;9.75;6.90;;;12.00;99.90;;;;;;5059164;28;20036;-78
2023/05/14 00:56:10;;;;;;;11.88;6.53;;;12.00;99.90;;;;;;5059508;28;20025;-78
2023/05/14 00:58:36;;;;;;;9.95;6.50;;;11.80;99.90;;;;;;5059319;28;20021;-78
2023/05/14 01:01:01;;;;;;;14.90;6.78;;;11.70;99.90;;;;;;5059085;28;20021;-79
2023/05/14 01:03:29;;;;;;;8.18;6.40;;;11.70;99.90;;;;;;5058701;28;20025;-80
2023/05/14 01:06:04;;;;;;;11.43;5.50;;;11.50;99.90;;;;;;5059417;28;20120;-79
2023/05/14 01:08:42;;;;;;;5.93;4.35;;;11.60;99.90;;;;;;5059882;28;20029;-79
2023/05/14 01:11:18;;;;;;;6.35;4.75;;;11.50;99.90;;;;;;5058787;28;20040;-79
2023/05/14 01:14:08;;;;;;;7.75;4.85;;;11.50;99.90;;;;;;5058887;28;20025;-80
2023/05/14 01:16:36;;;;;;;10.20;5.50;;;11.50;99.90;;;;;;5058695;28;20112;-78
2023/05/14 01:19:06;;;;;;;10.95;4.93;;;11.50;99.90;;;;;;5058957;28;20028;-77
2023/05/14 01:21:41;;;;;;;7.75;5.18;;;11.50;99.90;;;;;;5059987;28;20068;-78
2023/05/14 01:24:07;;;;;;;8.32;6.15;;;11.50;99.90;;;;;;5059016;28;20029;-77
2023/05/14 01:26:34;;;;;;;7.05;5.45;;;11.60;99.90;;;;;;5058797;28;20063;-77
2023/05/14 01:29:11;;;;;;;9.82;6.25;;;11.60;99.90;;;;;;5058486;28;20096;-77
2023/05/14 01:31:39;;;;;;;7.97;6.38;;;11.80;99.90;;;;;;5059213;28;20059;-78
2023/05/14 01:34:05;;;;;;;7.78;5.95;;;11.80;99.90;;;;;;5059078;28;20025;-77
2023/05/14 01:36:32;;;;;;;8.82;5.88;;;11.70;99.90;;;;;;5058355;28;20021;-77
2023/05/14 01:38:59;;;;;;;8.70;6.28;;;11.70;99.90;;;;;;5059354;28;20052;-77
2023/05/14 01:41:26;;;;;;;9.60;6.47;;;11.60;99.90;;;;;;5058028;28;20040;-72
2023/05/14 01:43:51;;;;;;;11.10;6.15;;;11.60;99.90;;;;;;5058339;28;20032;-72
2023/05/14 01:46:18;;;;;;;9.00;6.22;;;11.50;99.90;;;;;;5058116;28;20028;-72
2023/05/14 01:48:44;;;;;;;8.18;6.00;;;11.50;99.90;;;;;;5058044;28;20032;-72
2023/05/14 01:51:09;;;;;;;11.38;6.32;;;11.50;99.90;;;;;;5057950;28;20048;-72
2023/05/14 01:53:35;;;;;;;9.50;5.75;;;11.50;99.90;;;;;;5058256;28;20112;-72
2023/05/14 01:56:01;;;;;;;10.35;7.30;;;11.50;99.90;;;;;;5058454;28;20028;-72
2023/05/14 01:58:26;;;;;;;8.55;5.60;;;11.50;99.90;;;;;;5057872;28;20043;-72
2023/05/14 02:00:52;;;;;;;7.88;5.95;;;11.60;99.90;;;;;;5057772;28;20048;-72
2023/05/14 02:03:17;;;;;;;8.50;5.65;;;11.70;99.90;;;;;;5057860;28;20110;-72
2023/05/14 02:05:43;;;;;;;9.30;5.97;;;11.70;99.90;;;;;;5057700;28;20101;-72
2023/05/14 02:08:08;;;;;;;8.57;4.88;;;11.80;99.90;;;;;;5058552;28;20040;-72
2023/05/14 02:10:34;;;;;;;6.82;5.00;;;11.80;99.90;;;;;;5057685;28;20032;-72
2023/05/14 02:13:02;;;;;;;7.82;5.47;;;11.90;99.90;;;;;;5059152;28;20029;-72
2023/05/14 02:15:27;;;;;;;8.35;5.60;;;11.80;99.90;;;;;;5056963;28;20021;-72
2023/05/14 02:17:53;;;;;;;7.63;5.60;;;11.70;99.90;;;;;;5057947;28;20040;-72
2023/05/14 02:20:18;;;;;;;8.20;5.95;;;11.60;99.90;;;;;;5057854;28;20032;-72
2023/05/14 02:22:47;;;;;;;7.32;5.72;;;11.50;99.90;;;;;;5057295;28;20029;-72
2023/05/14 02:25:12;;;;;;;8.73;5.70;;;11.50;99.90;;;;;;5057399;28;20045;-72
2023/05/14 02:27:38;;;;;;;6.97;5.20;;;11.60;99.90;;;;;;5057346;28;20032;-72
2023/05/14 02:30:05;;;;;;;6.95;5.25;;;11.70;99.90;;;;;;5057362;28;20025;-72
2023/05/14 02:32:30;;;;;;;11.60;5.75;;;11.70;99.90;;;;;;5057073;28;20017;-72
2023/05/14 02:34:56;;;;;;;8.32;5.82;;;11.60;99.90;;;;;;5057183;28;20030;-73
2023/05/14 02:37:21;;;;;;;8.27;5.45;;;11.60;99.90;;;;;;5058323;28;20132;-72
2023/05/14 02:39:47;;;;;;;6.65;4.78;;;11.60;99.90;;;;;;5057089;28;20097;-72
2023/05/14 02:42:13;;;;;;;6.55;5.22;;;11.50;99.90;;;;;;5057818;28;20083;-72
2023/05/14 02:44:39;;;;;;;11.65;5.38;;;11.50;99.90;;;;;;5057211;28;20021;-72
2023/05/14 02:47:05;;;;;;;5.43;4.72;;;11.50;99.90;;;;;;5058057;28;20029;-72
2023/05/14 02:49:30;;;;;;;6.70;4.93;;;11.50;99.90;;;;;;5056863;28;20021;-73
2023/05/14 02:51:56;;;;;;;5.88;4.32;;;11.40;99.90;;;;;;5056813;28;20028;-72
2023/05/14 02:54:22;;;;;;;6.35;4.53;;;11.30;99.90;;;;;;5057674;28;20017;-72
2023/05/14 02:56:47;;;;;;;9.50;5.28;;;11.40;99.90;;;;;;5057173;28;20017;-72
2023/05/14 02:59:13;;;;;;;9.15;5.50;;;11.40;99.90;;;;;;5057082;28;20124;-72
2023/05/14 03:01:38;;;;;;;6.00;4.65;;;11.40;99.90;;;;;;5057467;28;20025;-72
2023/05/14 03:04:04;;;;;;;6.03;4.45;;;11.30;99.90;;;;;;5056607;28;20062;-72
2023/05/14 03:06:30;;;;;;;8.32;5.60;;;11.40;99.90;;;;;;5056791;28;20087;-72
2023/05/14 03:08:56;;;;;;;8.95;5.22;;;11.50;99.90;;;;;;5056467;28;20031;-72
2023/05/14 03:11:21;;;;;;;12.05;5.05;;;11.40;99.90;;;;;;5056542;28;20079;-72
2023/05/14 03:13:47;;;;;;;8.50;5.25;;;11.30;99.90;;;;;;5057342;28;20094;-72
2023/05/14 03:16:12;;;;;;;9.88;4.97;;;11.30;99.90;;;;;;5057332;28;20109;-72
2023/05/14 03:18:38;;;;;;;6.25;4.95;;;11.30;99.90;;;;;;5056790;28;20021;-72
2023/05/14 03:21:03;;;;;;;8.25;4.35;;;11.40;99.90;;;;;;5056296;28;20021;-72
2023/05/14 03:23:30;;;;;;;7.47;4.25;;;11.40;99.90;;;;;;5057166;28;20017;-72
2023/05/14 03:25:56;;;;;;;8.07;5.43;;;11.40;99.90;;;;;;5056267;28;20067;-72
2023/05/14 03:28:22;;;;;;;7.22;4.80;;;11.20;99.90;;;;;;5056315;28;20052;-72
2023/05/14 03:30:47;;;;;;;6.90;4.55;;;11.10;99.90;;;;;;5056133;28;20025;-72
2023/05/14 03:33:13;;;;;;;6.75;4.40;;;11.00;99.90;;;;;;5056448;28;20025;-72
2023/05/14 03:35:38;;;;;;;6.82;4.55;;;10.90;99.90;;;;;;5057093;28;20027;-72
2023/05/14 03:38:04;;;;;;;6.20;4.82;;;10.90;99.90;;;;;;5056227;28;20017;-72
2023/05/14 03:40:30;;;;;;;8.40;5.93;;;10.90;99.90;;;;;;5056086;28;20059;-72
2023/05/14 03:42:56;;;;;;;9.00;5.93;;;10.90;99.90;;;;;;5056381;28;20021;-72
2023/05/14 03:45:21;;;;;;;8.57;5.50;;;11.00;99.90;;;;;;5056622;28;20151;-72
2023/05/14 03:47:47;;;;;;;9.57;5.85;;;11.10;99.90;;;;;;5056438;28;20025;-72
2023/05/14 03:50:12;;;;;;;6.97;5.53;;;11.10;99.90;;;;;;5057066;28;20021;-72
2023/05/14 03:52:39;;;;;;;7.07;5.53;;;11.00;99.90;;;;;;5055840;28;20036;-72
2023/05/14 03:55:05;;;;;;;9.75;5.88;;;11.10;99.90;;;;;;5056058;28;20025;-72
2023/05/14 03:57:30;;;;;;;10.40;5.50;;;11.10;99.90;;;;;;5056976;28;20017;-72
2023/05/14 03:59:56;;;;;;;10.27;6.47;;;11.00;99.90;;;;;;5056698;28;20028;-72
2023/05/14 04:02:21;;;;;;;10.20;6.25;;;10.90;99.90;;;;;;5055783;28;20021;-72
2023/05/14 04:04:47;;;;;;;9.73;5.78;;;10.90;99.90;;;;;;5056728;28;20029;-72
2023/05/14 04:07:12;;;;;;;8.30;5.75;;;10.90;99.90;;;;;;5056986;28;20037;-72
2023/05/14 04:09:38;;;;;;;8.85;5.05;;;10.70;99.90;;;;;;5055930;28;20025;-72
2023/05/14 04:12:04;;;;;;;8.32;5.78;;;10.70;99.90;;;;;;5055783;28;20033;-72
2023/05/14 04:14:30;;;;;;;13.35;6.28;;;10.70;99.90;;;;;;5056163;28;20017;-72
2023/05/14 04:16:55;;;;;;;7.05;5.50;;;10.80;99.90;;;;;;5056056;28;20088;-72
2023/05/14 04:19:21;;;;;;;8.43;5.90;;;10.80;99.90;;;;;;5055918;28;20034;-72
2023/05/14 04:21:46;;;;;;;10.43;5.80;;;10.80;99.90;;;;;;5055928;28;20032;-72
2023/05/14 04:24:12;;;;;;;8.32;5.80;;;10.90;99.90;;;;;;5055720;28;20025;-72
2023/05/14 04:26:37;;;;;;;7.20;5.55;;;10.90;99.90;;;;;;5056607;28;20040;-72
2023/05/14 04:29:02;;;;;;;10.50;5.38;;;11.00;99.90;;;;;;5055934;28;20029;-72
2023/05/14 04:31:29;;;;;;;7.75;6.53;;;11.10;99.90;;;;;;5055752;28;20071;-72
2023/05/14 04:33:54;;;;;;;8.98;5.60;;;11.10;99.90;;;;;;5056579;28;20024;-72
2023/05/14 04:36:20;;;;;;;10.57;6.40;;;11.10;99.90;;;;;;5055629;28;20106;-72
2023/05/14 04:38:45;;;;;;;10.43;6.50;;;11.10;99.90;;;;;;5056113;28;20021;-72
2023/05/14 04:41:11;;;;;;;7.47;6.03;;;11.20;99.90;;;;;;5059341;28;20013;-72
2023/05/14 04:43:36;;;;;;;9.57;5.90;;;11.20;99.90;;;;;;5060294;28;20068;-72
2023/05/14 04:46:02;;;;;;;7.90;5.55;;;11.30;99.90;;;;;;5059570;28;20070;-72
2023/05/14 04:48:27;;;;;;;6.55;5.10;;;11.30;99.90;;;;;;5059492;28;20021;-72
2023/05/14 04:50:53;;;;;;;8.32;5.65;;;11.40;99.90;;;;;;5059731;28;20032;-72
2023/05/14 04:53:18;;;;;;;12.07;5.78;;;11.40;99.90;;;;;;5059245;28;20020;-72
2023/05/14 04:55:44;;;;;;;13.13;5.75;;;11.40;99.90;;;;;;5059469;28;20025;-72
2023/05/14 04:58:09;;;;;;;10.82;6.38;;;11.40;99.90;;;;;;5059212;28;20100;-72
2023/05/14 05:00:35;;;;;;;6.75;5.30;;;11.40;99.90;;;;;;5058895;28;20032;-72
2023/05/14 05:03:01;;;;;;;8.27;5.88;;;11.40;99.90;;;;;;5059007;28;20033;-72
2023/05/14 05:05:26;;;;;;;9.23;6.32;;;11.40;99.90;;;;;;5059129;28;20040;-72
2023/05/14 05:07:52;;;;;;;7.75;5.90;;;11.40;99.90;;;;;;5059620;28;20029;-72
2023/05/14 05:10:18;;;;;;;7.68;5.03;;;11.50;99.90;;;;;;5058750;28;20033;-72
2023/05/14 05:12:43;;;;;;;7.90;5.70;;;11.60;99.90;;;;;;5058582;28;20033;-72
2023/05/14 05:15:09;;;;;;;6.50;5.43;;;11.60;99.90;;;;;;5058801;28;20028;-72
2023/05/14 05:17:35;;;;;;;8.30;5.63;;;11.70;99.90;;;;;;5058679;28;20031;-72
2023/05/14 05:20:00;;;;;;;11.20;5.95;;;11.70;99.90;;;;;;5059477;28;20097;-72
2023/05/14 05:22:26;;;;;;;10.80;6.28;;;11.80;99.90;;;;;;5059432;28;20036;-72
2023/05/14 05:24:51;;;;;;;7.15;5.38;;;11.80;99.90;;;;;;5058417;28;20028;-72
2023/05/14 05:27:17;;;;;;;8.68;5.32;;;11.80;99.90;;;;;;5058895;28;20029;-72
2023/05/14 05:29:43;;;;;;;8.07;5.30;;;11.80;99.90;;;;;;5058332;28;20057;-72
2023/05/14 05:32:09;;;;;;;8.00;5.70;;;11.80;99.90;;;;;;5058305;28;20025;-72
2023/05/14 05:34:35;;;;;;;8.20;5.65;;;11.80;99.90;;;;;;5058658;28;20025;-72
2023/05/14 05:37:00;;;;;;;8.73;6.03;;;11.80;99.90;;;;;;5058626;28;20025;-72
2023/05/14 05:39:26;;;;;;;9.02;6.05;;;11.80;99.90;;;;;;5058392;28;20027;-72
2023/05/14 05:41:53;;;;;;;11.10;5.72;;;12.00;99.90;;;;;;5059343;28;20040;-72
2023/05/14 05:44:18;;;;;;;10.35;5.80;;;12.00;99.90;;;;;;5058620;28;20052;-72
2023/05/14 05:46:44;;;;;;;13.88;6.10;;;12.20;99.90;;;;;;5058977;28;20052;-72
2023/05/14 05:49:09;;;;;;;7.40;5.43;;;12.30;99.90;;;;;;5057986;28;20043;-72
2023/05/14 05:51:35;;;;;;;7.35;5.50;;;12.40;99.90;;;;;;5057937;28;20079;-73
2023/05/14 05:54:01;;;;;;;8.88;6.03;;;12.50;99.90;;;;;;5058520;28;20116;-72
2023/05/14 05:56:26;;;;;;;12.32;5.85;;;12.40;99.90;;;;;;5057912;28;20044;-72
2023/05/14 05:58:52;;;;;;;9.20;5.85;;;12.30;99.90;;;;;;5058090;28;20020;-72
2023/05/14 06:01:17;;;;;;;11.32;6.05;;;12.30;99.90;;;;;;5057767;28;20104;-72
2023/05/14 06:03:43;;;;;;;9.88;5.57;;;12.40;99.90;;;;;;5058787;28;20025;-72
2023/05/14 06:06:08;;;;;;;8.10;5.63;;;12.40;99.90;;;;;;5059064;28;20031;-72
2023/05/14 06:08:34;;;;;;;9.55;5.82;;;12.50;99.90;;;;;;5057583;28;20021;-72
2023/05/14 06:11:03;;;;;;;8.10;5.78;;;12.40;99.90;;;;;;5059038;28;20086;-72
2023/05/14 06:13:28;;;;;;;8.60;6.43;;;12.50;99.90;;;;;;5057672;28;20033;-72
2023/05/14 06:15:57;;;;;;;9.32;5.80;;;12.50;99.90;;;;;;5057532;28;20062;-72
2023/05/14 06:18:22;;;;;;;11.27;6.03;;;12.50;99.90;;;;;;5057647;28;20028;-72
2023/05/14 06:20:48;;;;;;;8.57;5.95;;;12.50;99.90;;;;;;5057357;28;20025;-72
2023/05/14 06:23:13;;;;;;;9.55;5.13;;;12.60;99.90;;;;;;5058540;28;20029;-72
2023/05/14 06:25:39;;;;;;;8.85;5.72;;;12.70;99.90;;;;;;5057467;28;20112;-72
2023/05/14 06:28:04;;;;;;;8.80;5.82;;;12.80;99.90;;;;;;5058387;28;20057;-72
2023/05/14 06:30:30;;;;;;;8.60;5.80;;;12.80;99.90;;;;;;5058155;28;20040;-72
2023/05/14 06:32:55;;;;;;;10.93;6.50;;;12.90;99.90;;;;;;5058296;28;20025;-72
2023/05/14 06:35:23;;;;;;;8.05;5.90;;;13.00;99.90;;;;;;5057534;28;20067;-72
2023/05/14 06:37:48;;;;;;;8.32;5.75;;;13.10;99.90;;;;;;5058238;28;20017;-72
2023/05/14 06:40:14;;;;;;;7.13;6.05;;;13.10;99.90;;;;;;5057534;28;20063;-72
2023/05/14 06:42:40;;;;;;;10.02;6.03;;;13.10;99.90;;;;;;5057009;28;20024;-72
2023/05/14 06:45:06;;;;;;;7.97;5.63;;;13.20;99.90;;;;;;5057345;28;20028;-72
2023/05/14 06:47:32;;;;;;;10.45;6.05;;;13.30;99.90;;;;;;5057598;28;20034;-72
2023/05/14 06:49:58;;;;;;;10.57;5.90;;;13.30;99.90;;;;;;5056979;28;20036;-72
2023/05/14 06:52:24;;;;;;;7.20;5.68;;;13.40;99.90;;;;;;5057708;28;20032;-73
2023/05/14 06:54:50;;;;;;;7.60;5.50;;;13.60;99.90;;;;;;5056845;28;20017;-72
2023/05/14 06:57:15;;;;;;;10.88;6.00;;;13.50;99.90;;;;;;5056710;28;20021;-72
2023/05/14 06:59:41;;;;;;;6.38;5.25;;;13.60;99.90;;;;;;5056998;28;20029;-72
2023/05/14 07:02:06;;;;;;;8.07;5.88;;;13.60;99.90;;;;;;5056569;28;20074;-72
2023/05/14 07:04:32;;;;;;;8.40;5.53;;;13.60;99.90;;;;;;5056789;28;20025;-72
2023/05/14 07:06:57;;;;;;;6.30;4.97;;;13.60;99.90;;;;;;5057126;28;20029;-72
2023/05/14 07:09:23;;;;;;;7.32;5.63;;;13.70;99.90;;;;;;5056549;28;20028;-72
2023/05/14 07:11:48;;;;;;;8.45;5.47;;;13.80;99.90;;;;;;5056300;28;20056;-73
2023/05/14 07:14:14;;;;;;;6.25;5.40;;;13.90;99.90;;;;;;5056546;28;20032;-72
2023/05/14 07:16:41;;;;;;;7.13;5.55;;;14.00;99.90;;;;;;5057283;28;20025;-73
2023/05/14 07:19:06;;;;;;;11.75;5.65;;;14.00;99.90;;;;;;5057528;28;20028;-73
2023/05/14 07:21:32;;;;;;;8.93;5.85;;;14.10;99.90;;;;;;5056340;28;20029;-73
2023/05/14 07:23:57;;;;;;;6.93;4.95;;;14.10;99.90;;;;;;5056379;28;20032;-73
2023/05/14 07:26:23;;;;;;;5.72;5.13;;;14.20;99.90;;;;;;5056895;28;20021;-73
2023/05/14 07:28:49;;;;;;;8.45;5.28;;;14.20;99.90;;;;;;5056140;28;20020;-73
2023/05/14 07:31:14;;;;;;;9.52;5.43;;;14.20;99.90;;;;;;5057166;28;20021;-81
2023/05/14 07:33:40;;;;;;;10.23;5.55;;;14.30;99.90;;;;;;5056713;28;20021;-81
2023/05/14 07:36:06;;;;;;;10.20;5.28;;;14.40;99.90;;;;;;5056591;28;20021;-72
2023/05/14 07:38:31;;;;;;;6.65;5.45;;;14.40;99.90;;;;;;5056282;28;20048;-73
2023/05/14 07:40:57;;;;;;;7.63;4.70;;;14.60;99.90;;;;;;5055985;28;20061;-75
2023/05/14 07:43:22;;;;;;;6.00;4.60;;;14.70;99.90;;;;;;5056213;28;20021;-74
2023/05/14 07:45:48;;;;;;;6.22;4.82;;;14.80;99.90;;;;;;5056289;28;20031;-74
2023/05/14 07:48:13;;;;;;;6.22;4.38;;;14.90;99.90;;;;;;5056129;28;20106;-74
2023/05/14 07:50:39;;;;;;;6.43;3.85;;;15.10;99.90;;;;;;5057260;28;20036;-74
2023/05/14 07:53:05;;;;;;;5.35;4.47;;;15.10;99.90;;;;;;5055951;28;20070;-74
2023/05/14 07:55:30;;;;;;;4.80;3.85;;;15.30;99.90;;;;;;5057032;28;20047;-74
2023/05/14 07:57:56;;;;;;;4.65;3.97;;;15.40;99.90;;;;;;5056307;28;20029;-73
2023/05/14 08:00:21;;;;;;;8.27;4.32;;;15.50;99.90;;;;;;5056566;28;20017;-73
2023/05/14 08:02:47;;;;;;;5.55;4.03;;;15.80;99.90;;;;;;5056002;28;20025;-73
2023/05/14 08:05:13;;;;;;;5.25;4.10;;;15.90;99.90;;;;;;5055885;28;20025;-73
2023/05/14 08:07:38;;;;;;;5.20;4.25;;;15.90;99.90;;;;;;5056060;28;20087;-73
2023/05/14 08:10:06;;;;;;;6.28;4.28;;;15.90;99.90;;;;;;5055903;28;20025;-73
2023/05/14 08:12:32;;;;;;;4.35;3.30;;;16.10;99.90;;;;;;5055811;28;20029;-73
2023/05/14 08:14:57;;;;;;;5.63;4.22;;;16.20;99.90;;;;;;5058586;28;20097;-74
2023/05/14 08:17:23;;;;;;;5.88;4.40;;;16.20;99.90;;;;;;5059830;28;20040;-74
2023/05/14 08:19:48;;;;;;;8.25;4.07;;;16.20;99.90;;;;;;5060346;28;20025;-75
2023/05/14 08:22:14;;;;;;;5.25;3.75;;;16.30;99.90;;;;;;5059714;28;20087;-74
2023/05/14 08:24:41;;;;;;;6.15;4.00;;;16.30;99.90;;;;;;5060115;28;20043;-74
2023/05/14 08:27:07;;;;;;;5.63;3.83;;;16.30;99.90;;;;;;5060852;28;20025;-73
2023/05/14 08:29:33;;;;;;;5.57;3.70;;;16.20;99.90;;;;;;5059829;28;20029;-73
2023/05/14 08:31:58;;;;;;;7.20;4.30;;;16.30;99.90;;;;;;5059851;28;20102;-74
2023/05/14 08:34:24;;;;;;;6.22;3.92;;;16.20;99.90;;;;;;5059350;28;20103;-73
2023/05/14 08:36:50;;;;;;;5.57;4.03;;;16.20;99.90;;;;;;5059785;28;20021;-73
2023/05/14 08:39:15;;;;;;;7.90;3.92;;;16.30;99.90;;;;;;5059391;28;20025;-73
2023/05/14 08:41:42;;;;;;;5.40;3.53;;;16.30;99.90;;;;;;5059275;28;20043;-73
2023/05/14 08:44:29;;;;;;;3.70;3.10;;;16.50;99.90;;;;;;5060281;28;20033;-73
2023/05/14 08:46:55;;;;;;;4.53;3.00;;;16.60;99.90;;;;;;5059326;28;20060;-73
2023/05/14 08:49:39;;;;;;;3.22;2.75;;;16.70;99.90;;;;;;5059533;28;20063;-73
2023/05/14 08:52:06;;;;;;;3.83;3.47;;;16.90;99.90;;;;;;5059037;28;20021;-73
2023/05/14 08:54:31;;;;;;;5.50;3.53;;;17.10;99.90;;;;;;5060115;28;20025;-73
2023/05/14 08:56:58;;;;;;;4.78;3.42;;;17.10;99.90;;;;;;5059140;28;20028;-73
2023/05/14 08:59:24;;;;;;;6.50;3.17;;;17.20;99.90;;;;;;5059279;28;20060;-73
2023/05/14 09:01:52;;;;;;;4.28;3.70;;;17.20;99.90;;;;;;5059649;28;20047;-73
2023/05/14 09:04:22;;;;;;;4.18;3.03;;;17.30;99.90;;;;;;5059012;28;20055;-73
2023/05/14 09:06:49;;;;;;;10.75;3.42;;;17.40;99.90;;;;;;5059370;28;20047;-73
2023/05/14 09:09:15;;;;;;;8.52;3.30;;;17.50;99.90;;;;;;5059300;28;20123;-73
2023/05/14 09:11:41;;;;;;;3.55;2.30;;;17.60;99.90;;;;;;5058850;28;20076;-73
2023/05/14 09:14:08;;;;;;;3.25;2.17;;;17.80;99.90;;;;;;5059180;28;20025;-73
2023/05/14 09:16:35;;;;;;;2.70;2.50;;;17.80;99.90;;;;;;5058776;28;20018;-73
2023/05/14 09:19:02;;;;;;;2.70;2.47;;;17.80;99.90;;;;;;5059035;28;20017;-73
2023/05/14 09:21:28;;;;;;;4.63;2.70;;;17.90;99.90;;;;;;5059012;28;20017;-73
2023/05/14 09:23:55;;;;;;;2.92;1.95;;;18.20;99.90;;;;;;5058603;28;20056;-73
2023/05/14 09:26:25;;;;;;;2.97;1.58;;;18.30;99.90;;;;;;5058850;28;20091;-73
2023/05/14 09:28:56;;;;;;;3.72;2.22;;;18.10;99.90;;;;;;5058444;28;20044;-73
2023/05/14 09:31:22;;;;;;;4.40;2.40;;;18.00;99.90;;;;;;5058689;28;20021;-73
2023/05/14 09:33:51;;;;;;;2.65;2.30;;;17.90;99.90;;;;;;5058409;28;20131;-73
2023/05/14 09:36:17;;;;;;;6.72;2.35;;;17.80;99.90;;;;;;5058472;28;20017;-73
2023/05/14 09:38:43;;;;;;;2.97;2.45;;;17.80;99.90;;;;;;5058390;28;20084;-73
2023/05/14 09:41:08;;;;;;;2.83;2.15;;;17.80;99.90;;;;;;5058216;28;20060;-74
2023/05/14 09:43:34;;;;;;;2.20;2.00;;;17.90;99.90;;;;;;5058581;28;20033;-73
2023/05/14 09:46:00;;;;;;;5.25;1.90;;;17.80;99.90;;;;;;5059015;28;20074;-73
2023/05/14 09:48:25;;;;;;;1.70;1.60;;;17.80;99.90;;;;;;5058531;28;20131;-73
2023/05/14 09:50:51;;;;;;;1.98;1.75;;;17.90;99.90;;;;;;5057867;28;20108;-73
2023/05/14 09:53:17;;;;;;;3.67;2.10;;;17.90;99.90;;;;;;5059440;28;20071;-73
2023/05/14 09:55:44;;;;;;;2.42;1.98;;;17.90;99.90;;;;;;5058190;28;20135;-73
2023/05/14 09:58:10;;;;;;;1.83;1.73;;;17.90;99.90;;;;;;5058003;28;20108;-73
2023/05/14 10:00:36;;;;;;;2.72;2.25;;;18.20;99.90;;;;;;5058175;28;20106;-73
2023/05/14 10:03:05;;;;;;;2.40;2.17;;;18.30;99.90;;;;;;5058131;28;20035;-73
2023/05/14 10:05:35;;;;;;;2.97;1.90;;;18.30;99.90;;;;;;5057816;28;20052;-73
2023/05/14 10:08:06;;;;;;;2.20;2.00;;;18.30;99.90;;;;;;5057700;28;20029;-73
2023/05/14 10:10:34;;;;;;;2.33;2.13;;;18.30;99.90;;;;;;5057645;28;20029;-73
2023/05/14 10:13:04;;;;;;;2.88;2.20;;;18.30;99.90;;;;;;5057599;28;20056;-73
2023/05/14 10:15:38;;;;;;;2.67;2.30;;;18.40;99.90;;;;;;5058161;28;20025;-73
2023/05/14 10:18:12;;;;;;;2.35;2.08;;;18.40;99.90;;;;;;5057898;28;20051;-73
2023/05/14 10:20:39;;;;;;;4.22;2.22;;;18.30;99.90;;;;;;5057673;28;20024;-73
2023/05/14 10:23:06;;;;;;;5.18;2.38;;;18.40;99.90;;;;;;5057394;28;20024;-73
2023/05/14 10:25:33;;;;;;;3.85;2.30;;;18.40;99.90;;;;;;5057557;28;20032;-73
2023/05/14 10:27:59;;;;;;;2.15;1.95;;;18.70;99.90;;;;;;5057695;28;20025;-73
2023/05/14 10:30:25;;;;;;;2.90;2.30;;;19.00;99.90;;;;;;5057550;28;20088;-73
2023/05/14 10:33:10;;;;;;;2.53;2.20;;;19.30;99.90;;;;;;5057232;28;20111;-73
2023/05/14 10:35:53;;;;;;;2.55;2.33;;;19.60;99.90;;;;;;5057598;28;20021;-73
2023/05/14 10:38:26;;;;;;;2.67;2.40;;;20.00;99.90;;;;;;5057397;28;20062;-73
2023/05/14 10:41:04;;;;;;;2.78;2.35;;;20.40;99.90;;;;;;5057183;28;20021;-73
2023/05/14 10:43:34;;;;;;;3.55;2.22;;;20.30;99.90;;;;;;5058361;28;20055;-73
2023/05/14 10:46:00;;;;;;;2.30;2.10;;;20.30;99.90;;;;;;5057172;28;20059;-73
2023/05/14 10:48:26;;;;;;;5.22;2.22;;;20.70;99.90;;;;;;5057584;28;20033;-74
2023/05/14 10:50:52;;;;;;;5.15;2.17;;;21.30;99.90;;;;;;5056751;28;20021;-73
2023/05/14 10:53:18;;;;;;;2.33;2.13;;;21.50;99.90;;;;;;5057301;28;20021;-74
2023/05/14 10:55:44;;;;;;;4.28;2.38;;;21.80;99.90;;;;;;5057628;28;20052;-73
2023/05/14 10:58:11;;;;;;;2.53;2.03;;;21.50;99.90;;;;;;5057756;28;20024;-73
2023/05/14 11:00:38;;;;;;;2.60;2.03;;;20.90;99.90;;;;;;5057390;28;20115;-73
2023/05/14 11:03:05;;;;;;;3.67;2.30;;;20.80;99.90;;;;;;5057030;28;20093;-73
2023/05/14 11:05:32;;;;;;;2.88;2.20;;;20.40;99.90;;;;;;5056647;28;20116;-74
2023/05/14 11:07:59;;;;;;;2.47;2.05;;;20.30;99.90;;;;;;5056649;28;20143;-73
2023/05/14 11:10:28;;;;;;;3.33;2.42;;;20.20;99.90;;;;;;5057045;28;20029;-73
2023/05/14 11:12:55;;;;;;;2.45;2.15;;;20.10;99.90;;;;;;5056390;28;20157;-73
2023/05/14 11:15:23;;;;;;;2.75;1.98;;;20.20;99.90;;;;;;5056572;28;20120;-73
2023/05/14 11:17:49;;;;;;;2.30;2.00;;;20.30;99.90;;;;;;5056526;28;20111;-74
2023/05/14 11:20:16;;;;;;;5.70;2.78;;;20.50;99.90;;;;;;5056472;28;20058;-74
2023/05/14 11:22:42;;;;;;;2.20;2.03;;;20.30;99.90;;;;;;5056501;28;20053;-73
2023/05/14 11:25:09;;;;;;;2.53;2.33;;;20.30;99.90;;;;;;5056320;28;20021;-71
2023/05/14 11:27:37;;;;;;;3.03;2.38;;;20.20;99.90;;;;;;5056989;28;20035;-71
2023/05/14 11:30:03;;;;;;;3.28;2.08;;;20.00;99.90;;;;;;5056614;28;20028;-73
2023/05/14 11:32:31;;;;;;;3.42;2.13;;;19.90;99.90;;;;;;5057028;28;20027;-73
2023/05/14 11:34:57;;;;;;;6.55;2.33;;;20.00;99.90;;;;;;5057091;28;20120;-73
2023/05/14 11:37:22;;;;;;;2.67;2.20;;;20.10;99.90;;;;;;5056515;28;20060;-73
2023/05/14 11:39:51;;;;;;;2.88;2.55;;;20.10;99.90;;;;;;5056226;28;20035;-73
2023/05/14 11:42:18;;;;;;;2.42;1.67;;;19.90;99.90;;;;;;5056947;28;20108;-73
2023/05/14 11:44:49;;;;;;;3.40;2.15;;;19.90;99.90;;;;;;5056186;28;20029;-73
2023/05/14 11:47:17;;;;;;;5.25;2.63;;;19.70;99.90;;;;;;5056224;28;20032;-73
2023/05/14 11:49:43;;;;;;;3.55;2.15;;;19.70;99.90;;;;;;5056012;28;20102;-73
2023/05/14 11:52:17;;;;;;;2.90;2.60;;;19.50;99.90;;;;;;5056313;28;20024;-73
2023/05/14 11:54:44;;;;;;;2.63;2.22;;;19.50;99.90;;;;;;5057027;28;20020;-73
2023/05/14 11:57:18;;;;;;;5.20;2.63;;;19.50;99.90;;;;;;5056864;28;20024;-73
2023/05/14 11:59:44;;;;;;;5.47;2.83;;;19.50;99.90;;;;;;5055987;28;20025;-73
2023/05/14 12:02:12;;;;;;;2.80;2.22;;;19.70;99.90;;;;;;5056630;28;20025;-73
2023/05/14 12:04:39;;;;;;;2.80;2.10;;;19.80;99.90;;;;;;5056696;28;20082;-73
2023/05/14 12:07:12;;;;;;;2.45;2.25;;;19.90;99.90;;;;;;5056117;28;20035;-73
2023/05/14 12:09:41;;;;;;;2.53;2.22;;;20.00;99.90;;;;;;5056582;28;20052;-73
2023/05/14 12:12:09;;;;;;;2.33;2.13;;;20.00;99.90;;;;;;5095644;22;20032;-75
2023/05/14 12:14:37;;;;;;;2.53;2.28;;;19.80;99.90;;;;;;5095954;28;20021;-75
2023/05/14 12:17:13;;;;;;;3.08;2.15;;;19.80;99.90;;;;;;5096152;28;20050;-75
2023/05/14 12:19:40;;;;;;;2.53;2.33;;;19.90;99.90;;;;;;5096150;28;20024;-75
2023/05/14 12:22:07;;;;;;;3.15;2.15;;;19.90;99.90;;;;;;5096546;28;20081;-75
2023/05/14 12:24:32;;;;;;;2.10;1.90;;;20.80;99.90;;;;;;5095964;28;20035;-75
2023/05/14 12:27:00;;;;;;;2.38;2.17;;;21.60;99.90;;;;;;5095902;28;20028;-75
2023/05/14 12:29:26;;;;;;;2.78;2.30;;;21.70;99.90;;;;;;5095913;28;20039;-75
2023/05/14 12:31:51;;;;;;;2.22;1.90;;;21.40;99.90;;;;;;5095886;28;20020;-75
2023/05/14 12:34:17;;;;;;;3.05;2.17;;;21.10;99.90;;;;;;5096230;28;20085;-75
2023/05/14 12:36:43;;;;;;;4.13;2.50;;;20.90;99.90;;;;;;5095973;28;20028;-75
2023/05/14 12:39:11;;;;;;;2.95;2.55;;;20.70;99.90;;;;;;5095934;28;20020;-75
2023/05/14 12:41:36;;;;;;;5.15;2.88;;;20.50;99.90;;;;;;5095820;28;20032;-75